createdAt,value
2023-02-09T00:04:18.796Z,100.00
2023-02-09T00:09:22.875Z,100.00
2023-02-09T00:14:25.847Z,100.00
2023-02-09T00:19:29.702Z,100.00
2023-02-09T00:24:34.903Z,100.00
2023-02-09T00:29:37.600Z,100.00
2023-02-09T00:34:40.381Z,100.00
2023-02-09T00:39:44.518Z,100.00
2023-02-09T00:44:47.208Z,100.00
2023-02-09T00:49:50.913Z,100.00
2023-02-09T00:54:55.084Z,100.00
2023-02-09T00:59:57.807Z,100.00
2023-02-09T01:05:00.773Z,100.00
2023-02-09T01:10:05.653Z,100.00
2023-02-09T01:15:11.134Z,100.00
2023-02-09T01:20:14.913Z,100.00
2023-02-09T01:25:19.220Z,100.00
2023-02-09T01:30:22.031Z,100.00
2023-02-09T01:35:24.799Z,100.00
2023-02-09T01:40:28.953Z,100.00
2023-02-09T01:45:36.225Z,100.00
2023-02-09T01:50:42.134Z,100.00
2023-02-09T01:55:51.494Z,100.00
2023-02-09T02:00:54.629Z,100.00
2023-02-09T02:06:01.258Z,100.00
2023-02-09T02:11:05.642Z,100.00
2023-02-09T02:16:20.795Z,100.00
2023-02-09T02:22:15.193Z,100.00
2023-02-09T02:27:31.505Z,100.00
2023-02-09T02:32:44.152Z,100.00
2023-02-09T02:37:57.066Z,100.00
2023-02-09T02:43:07.132Z,100.00
2023-02-09T02:48:21.782Z,100.00
2023-02-09T02:53:29.172Z,100.00
2023-02-09T02:58:34.298Z,100.00
2023-02-09T03:03:41.403Z,100.00
2023-02-09T03:08:48.922Z,100.00
2023-02-09T03:14:06.149Z,100.00
2023-02-09T03:19:20.393Z,100.00
2023-02-09T03:24:35.205Z,100.00
2023-02-09T03:29:40.084Z,100.00
2023-02-09T03:34:45.675Z,100.00
2023-02-09T03:39:48.430Z,100.00
2023-02-09T03:44:51.139Z,100.00
2023-02-09T03:49:55.287Z,100.00
2023-02-09T03:54:58.031Z,100.00
2023-02-09T04:00:01.719Z,100.00
2023-02-09T04:05:16.030Z,100.00
2023-02-09T04:10:19.158Z,100.00
2023-02-09T04:15:21.866Z,100.00
2023-02-09T04:20:25.913Z,100.00
2023-02-09T04:25:28.781Z,100.00
2023-02-09T04:30:31.592Z,100.00
2023-02-09T04:35:35.760Z,100.00
2023-02-09T04:40:38.584Z,100.00
2023-02-09T04:45:42.197Z,100.00
2023-02-09T04:50:47.157Z,100.00
2023-02-09T04:55:52.516Z,100.00
2023-02-09T05:00:56.250Z,100.00
2023-02-09T05:06:02.892Z,100.00
2023-02-09T05:11:05.905Z,100.00
2023-02-09T05:16:10.747Z,100.00
2023-02-09T05:21:15.308Z,100.00
2023-02-09T05:26:18.052Z,100.00
2023-02-09T05:31:20.947Z,100.00
2023-02-09T05:36:25.125Z,100.00
2023-02-09T05:41:45.421Z,100.00
2023-02-09T05:46:48.144Z,100.00
2023-02-09T05:51:52.317Z,100.00
2023-02-09T05:56:55.165Z,100.00
2023-02-09T06:01:58.324Z,100.00
2023-02-09T06:07:02.515Z,100.00
2023-02-09T06:12:05.748Z,100.00
2023-02-09T06:17:08.563Z,100.00
2023-02-09T06:22:12.705Z,100.00
2023-02-09T06:27:15.426Z,100.00
2023-02-09T06:32:18.270Z,100.00
2023-02-09T06:37:22.530Z,100.00
2023-02-09T06:42:25.366Z,100.00
2023-02-09T06:47:28.156Z,100.00
2023-02-09T06:52:32.397Z,100.00
2023-02-09T06:57:35.483Z,100.00
2023-02-09T07:02:38.239Z,100.00
2023-02-09T07:07:43.030Z,100.00
2023-02-09T07:12:46.243Z,100.00
2023-02-09T07:17:49.017Z,100.00
2023-02-09T07:22:53.099Z,100.00
2023-02-09T07:27:55.926Z,100.00
2023-02-09T07:32:58.743Z,100.00
2023-02-09T07:38:02.868Z,100.00
2023-02-09T07:43:06.159Z,100.00
2023-02-09T07:48:10.978Z,100.00
2023-02-09T07:53:15.180Z,100.00
2023-02-09T07:58:19.905Z,100.00
2023-02-09T08:03:25.257Z,100.00
2023-02-09T08:08:30.248Z,100.00
2023-02-09T08:13:37.884Z,100.00
2023-02-09T08:18:43.497Z,100.00
2023-02-09T08:23:52.554Z,100.00
2023-02-09T08:28:55.837Z,100.00
2023-02-09T08:33:58.745Z,100.00
2023-02-09T08:39:03.208Z,100.00
2023-02-09T08:44:06.452Z,100.00
2023-02-09T08:49:09.268Z,100.00
2023-02-09T08:54:13.404Z,100.00
2023-02-09T08:59:18.430Z,100.00
2023-02-09T09:04:22.669Z,100.00
2023-02-09T09:09:26.826Z,100.00
2023-02-09T09:14:30.067Z,100.00
2023-02-09T09:19:32.880Z,100.00
2023-02-09T09:24:40.634Z,100.00
2023-02-09T09:29:44.037Z,100.00
2023-02-09T09:34:46.828Z,100.00
2023-02-09T09:39:51.435Z,100.00
2023-02-09T09:44:55.851Z,100.00
2023-02-09T09:49:58.812Z,97.61
2023-02-09T09:55:06.691Z,96.46
2023-02-09T10:00:19.109Z,97.73
2023-02-09T10:05:24.940Z,97.32
2023-02-09T10:10:38.976Z,96.58
2023-02-09T10:15:41.831Z,90.57
2023-02-09T10:20:48.660Z,87.30
2023-02-09T10:26:03.833Z,85.10
2023-02-09T10:31:16.676Z,84.70
2023-02-09T10:36:32.531Z,80.15
2023-02-09T10:41:37.795Z,79.31
2023-02-09T10:46:41.727Z,77.39
2023-02-09T10:51:44.680Z,74.88
2023-02-09T10:56:50.227Z,73.31
2023-02-09T11:01:56.920Z,72.18
2023-02-09T11:07:01.913Z,70.86
2023-02-09T11:12:10.978Z,68.17
2023-02-09T11:17:17.545Z,66.80
2023-02-09T11:22:29.422Z,66.27
2023-02-09T11:28:01.377Z,63.06
2023-02-09T11:33:16.284Z,64.89
2023-02-09T11:38:24.398Z,62.71
2023-02-09T11:43:33.564Z,62.91
2023-02-09T11:48:39.964Z,61.82
2023-02-09T11:53:49.781Z,60.24
2023-02-09T11:59:01.300Z,59.25
2023-02-09T12:04:11.710Z,60.73
2023-02-09T12:09:30.353Z,61.63
2023-02-09T12:14:49.092Z,55.71
2023-02-09T12:19:58.682Z,55.25
2023-02-09T12:25:20.256Z,56.57
2023-02-09T12:31:01.311Z,51.22
2023-02-09T12:36:29.762Z,50.76
2023-02-09T12:42:11.081Z,50.90
2023-02-09T12:47:46.240Z,52.14
2023-02-09T12:53:22.510Z,50.52
2023-02-09T12:58:54.937Z,51.20
2023-02-09T13:04:02.652Z,51.89
2023-02-09T13:09:10.861Z,53.06
2023-02-09T13:14:17.416Z,52.19
2023-02-09T13:19:52.738Z,52.98
2023-02-09T13:25:00.568Z,53.35
2023-02-09T13:30:03.395Z,53.27
2023-02-09T13:35:22.305Z,57.00
2023-02-09T13:40:27.115Z,56.83
2023-02-09T13:45:31.060Z,59.25
2023-02-09T13:50:35.315Z,60.09
2023-02-09T13:55:40.745Z,59.86
2023-02-09T14:00:46.331Z,59.32
2023-02-09T14:05:56.667Z,59.44
2023-02-09T14:11:06.840Z,60.59
2023-02-09T14:16:10.507Z,61.04
2023-02-09T14:21:31.079Z,61.67
2023-02-09T14:26:38.200Z,63.22
2023-02-09T14:31:43.166Z,62.94
2023-02-09T14:36:53.987Z,61.49
2023-02-09T14:42:15.040Z,63.20
2023-02-09T14:47:37.406Z,62.76
2023-02-09T14:52:46.705Z,64.00
2023-02-09T14:57:49.690Z,64.18
2023-02-09T15:02:53.963Z,63.47
2023-02-09T15:08:05.824Z,63.43
2023-02-09T15:13:09.157Z,64.01
2023-02-09T15:18:19.650Z,65.35
2023-02-09T15:23:23.794Z,65.65
2023-02-09T15:28:29.976Z,65.19
2023-02-09T15:33:32.811Z,65.58
2023-02-09T15:38:37.391Z,66.30
2023-02-09T15:43:57.662Z,66.83
2023-02-09T15:49:00.498Z,67.67
2023-02-09T15:54:09.068Z,68.37
2023-02-09T15:59:18.807Z,69.66
2023-02-09T16:04:21.604Z,70.89
2023-02-09T16:09:28.572Z,71.41
2023-02-09T16:14:31.693Z,74.06
2023-02-09T16:19:34.693Z,76.28
2023-02-09T16:24:42.487Z,78.14
2023-02-09T16:29:45.272Z,80.29
2023-02-09T16:34:48.035Z,83.01
2023-02-09T16:39:52.276Z,85.14
2023-02-09T16:44:56.502Z,86.78
2023-02-09T16:50:01.057Z,89.07
2023-02-09T16:55:11.297Z,91.98
2023-02-09T17:00:15.809Z,95.82
2023-02-09T17:05:21.436Z,98.53
2023-02-09T17:10:28.802Z,100.00
2023-02-09T17:15:36.820Z,100.00
2023-02-09T17:20:44.038Z,100.00
2023-02-09T17:25:50.761Z,100.00
2023-02-09T17:30:57.945Z,100.00
2023-02-09T17:41:32.513Z,100.00
2023-02-09T17:46:35.675Z,100.00
2023-02-09T17:51:41.294Z,100.00
2023-02-09T17:56:46.315Z,100.00
2023-02-09T18:01:50.686Z,100.00
2023-02-09T18:06:54.350Z,100.00
2023-02-09T18:12:02.389Z,100.00
2023-02-09T18:17:05.206Z,100.00
2023-02-09T18:22:08.266Z,100.00
2023-02-09T18:27:16.025Z,100.00
2023-02-09T18:32:21.024Z,100.00
2023-02-09T18:37:24.205Z,100.00
2023-02-09T18:42:28.277Z,100.00
2023-02-09T18:47:31.478Z,100.00
2023-02-09T18:52:34.755Z,100.00
2023-02-09T18:57:39.495Z,100.00
2023-02-09T19:02:44.324Z,100.00
2023-02-09T19:07:50.004Z,100.00
2023-02-09T19:12:55.425Z,100.00
2023-02-09T19:17:58.214Z,100.00
2023-02-09T19:23:02.342Z,100.00
2023-02-09T19:28:06.574Z,100.00
2023-02-09T19:33:09.356Z,100.00
2023-02-09T19:38:12.168Z,100.00
2023-02-09T19:43:16.356Z,100.00
2023-02-09T19:48:19.422Z,100.00
2023-02-09T19:53:22.180Z,100.00
2023-02-09T19:58:26.400Z,100.00
2023-02-09T20:03:29.960Z,100.00
2023-02-09T20:08:32.728Z,100.00
2023-02-09T20:13:38.085Z,100.00
2023-02-09T20:18:41.088Z,100.00
2023-02-09T20:23:45.764Z,100.00
2023-02-09T20:28:50.969Z,100.00
2023-02-09T20:33:54.672Z,100.00
2023-02-09T20:38:57.399Z,100.00
2023-02-09T20:44:18.986Z,100.00
2023-02-09T20:49:23.338Z,100.00
2023-02-09T20:54:26.108Z,100.00
2023-02-09T20:59:30.998Z,100.00
2023-02-09T21:04:33.709Z,100.00
2023-02-09T21:09:36.533Z,100.00
2023-02-09T21:14:43.229Z,100.00
2023-02-09T21:19:46.151Z,100.00
2023-02-09T21:24:48.891Z,100.00
2023-02-09T21:29:53.016Z,100.00
2023-02-09T21:34:55.730Z,100.00
2023-02-09T21:40:01.936Z,100.00
2023-02-09T21:45:08.023Z,100.00
2023-02-09T21:50:12.786Z,100.00
2023-02-09T21:55:15.667Z,100.00
2023-02-09T22:00:20.143Z,100.00
2023-02-09T22:05:22.950Z,100.00
2023-02-09T22:10:25.714Z,100.00
2023-02-09T22:15:29.785Z,100.00
2023-02-09T22:20:32.537Z,100.00
2023-02-09T22:25:36.129Z,100.00
2023-02-09T22:30:40.254Z,100.00
2023-02-09T22:35:43.053Z,100.00
2023-02-09T22:40:45.766Z,100.00
2023-02-09T22:45:55.849Z,100.00
2023-02-09T22:50:58.617Z,100.00
2023-02-09T22:56:02.916Z,100.00
2023-02-09T23:01:08.036Z,100.00
2023-02-09T23:06:14.220Z,100.00
2023-02-09T23:11:18.353Z,100.00
2023-02-09T23:16:24.473Z,100.00
2023-02-09T23:21:29.809Z,100.00
2023-02-09T23:26:32.673Z,100.00
2023-02-09T23:31:37.527Z,100.00
2023-02-09T23:36:40.231Z,100.00
2023-02-09T23:41:43.158Z,100.00
2023-02-09T23:46:47.244Z,100.00
2023-02-09T23:51:50.098Z,100.00
2023-02-09T23:56:53.623Z,100.00
